sensor_id;sensor_type;location;lat;lon;timestamp;P1;durP1;ratioP1;P2;durP2;ratioP2
22026;SDS011;11177;50.966;10.070;2023-02-05T00:00:04;5.85;;;3.03;;
22026;SDS011;11177;50.966;10.070;2023-02-05T00:02:32;5.60;;;3.53;;
22026;SDS011;11177;50.966;10.070;2023-02-05T00:04:59;7.25;;;3.33;;
22026;SDS011;11177;50.966;10.070;2023-02-05T00:07:25;4.43;;;2.65;;
22026;SDS011;11177;50.966;10.070;2023-02-05T00:09:52;5.43;;;3.50;;
22026;SDS011;11177;50.966;10.070;2023-02-05T00:12:19;4.30;;;2.78;;
22026;SDS011;11177;50.966;10.070;2023-02-05T00:14:45;3.45;;;2.42;;
22026;SDS011;11177;50.966;10.070;2023-02-05T00:17:12;3.30;;;2.50;;
22026;SDS011;11177;50.966;10.070;2023-02-05T00:19:39;4.43;;;2.45;;
22026;SDS011;11177;50.966;10.070;2023-02-05T00:22:05;4.25;;;2.53;;
22026;SDS011;11177;50.966;10.070;2023-02-05T00:24:32;6.25;;;2.80;;
22026;SDS011;11177;50.966;10.070;2023-02-05T00:26:59;5.45;;;2.78;;
22026;SDS011;11177;50.966;10.070;2023-02-05T00:29:26;3.85;;;2.47;;
22026;SDS011;11177;50.966;10.070;2023-02-05T00:31:52;4.25;;;2.60;;
22026;SDS011;11177;50.966;10.070;2023-02-05T00:34:19;4.07;;;2.40;;
22026;SDS011;11177;50.966;10.070;2023-02-05T00:36:46;2.67;;;2.15;;
22026;SDS011;11177;50.966;10.070;2023-02-05T00:39:13;3.92;;;2.50;;
22026;SDS011;11177;50.966;10.070;2023-02-05T00:41:40;3.95;;;2.47;;
22026;SDS011;11177;50.966;10.070;2023-02-05T00:44:07;3.33;;;2.33;;
22026;SDS011;11177;50.966;10.070;2023-02-05T00:46:33;4.60;;;2.90;;
22026;SDS011;11177;50.966;10.070;2023-02-05T00:49:00;4.72;;;2.85;;
22026;SDS011;11177;50.966;10.070;2023-02-05T00:51:27;3.63;;;2.58;;
22026;SDS011;11177;50.966;10.070;2023-02-05T00:53:54;5.60;;;2.60;;
22026;SDS011;11177;50.966;10.070;2023-02-05T00:56:20;3.25;;;2.40;;
22026;SDS011;11177;50.966;10.070;2023-02-05T00:58:47;4.65;;;2.30;;
22026;SDS011;11177;50.966;10.070;2023-02-05T01:01:16;2.80;;;2.17;;
22026;SDS011;11177;50.966;10.070;2023-02-05T01:03:43;4.63;;;2.35;;
22026;SDS011;11177;50.966;10.070;2023-02-05T01:06:09;3.05;;;2.35;;
22026;SDS011;11177;50.966;10.070;2023-02-05T01:08:36;3.78;;;2.72;;
22026;SDS011;11177;50.966;10.070;2023-02-05T01:11:05;3.10;;;2.28;;
22026;SDS011;11177;50.966;10.070;2023-02-05T01:13:33;4.38;;;2.53;;
22026;SDS011;11177;50.966;10.070;2023-02-05T01:16:00;3.90;;;2.67;;
22026;SDS011;11177;50.966;10.070;2023-02-05T01:18:26;3.38;;;2.55;;
22026;SDS011;11177;50.966;10.070;2023-02-05T01:20:53;4.82;;;2.35;;
22026;SDS011;11177;50.966;10.070;2023-02-05T01:23:20;5.65;;;2.88;;
22026;SDS011;11177;50.966;10.070;2023-02-05T01:25:47;3.25;;;2.10;;
22026;SDS011;11177;50.966;10.070;2023-02-05T01:28:13;3.70;;;2.65;;
22026;SDS011;11177;50.966;10.070;2023-02-05T01:30:40;5.82;;;2.55;;
22026;SDS011;11177;50.966;10.070;2023-02-05T01:33:07;3.47;;;2.55;;
22026;SDS011;11177;50.966;10.070;2023-02-05T01:35:34;5.13;;;3.10;;
22026;SDS011;11177;50.966;10.070;2023-02-05T01:38:01;4.38;;;2.65;;
22026;SDS011;11177;50.966;10.070;2023-02-05T01:40:28;5.57;;;2.85;;
22026;SDS011;11177;50.966;10.070;2023-02-05T01:42:55;5.50;;;3.25;;
22026;SDS011;11177;50.966;10.070;2023-02-05T01:48:07;14.05;;;6.15;;
22026;SDS011;11177;50.966;10.070;2023-02-05T01:50:44;11.63;;;5.43;;
22026;SDS011;11177;50.966;10.070;2023-02-05T01:53:32;7.68;;;4.50;;
22026;SDS011;11177;50.966;10.070;2023-02-05T01:56:11;9.43;;;4.68;;
22026;SDS011;11177;50.966;10.070;2023-02-05T01:58:41;9.27;;;4.88;;
22026;SDS011;11177;50.966;10.070;2023-02-05T02:01:11;7.13;;;4.53;;
22026;SDS011;11177;50.966;10.070;2023-02-05T02:03:39;10.63;;;4.43;;
22026;SDS011;11177;50.966;10.070;2023-02-05T02:06:06;6.22;;;4.18;;
22026;SDS011;11177;50.966;10.070;2023-02-05T02:08:33;7.30;;;3.92;;
22026;SDS011;11177;50.966;10.070;2023-02-05T02:11:00;7.80;;;4.18;;
22026;SDS011;11177;50.966;10.070;2023-02-05T02:13:28;6.82;;;4.00;;
22026;SDS011;11177;50.966;10.070;2023-02-05T02:15:56;8.27;;;4.30;;
22026;SDS011;11177;50.966;10.070;2023-02-05T02:18:23;6.90;;;4.30;;
22026;SDS011;11177;50.966;10.070;2023-02-05T02:20:57;6.95;;;3.95;;
22026;SDS011;11177;50.966;10.070;2023-02-05T02:29:34;4.88;;;3.20;;
22026;SDS011;11177;50.966;10.070;2023-02-05T02:32:05;5.80;;;3.10;;
22026;SDS011;11177;50.966;10.070;2023-02-05T02:34:40;4.25;;;3.08;;
22026;SDS011;11177;50.966;10.070;2023-02-05T02:37:12;4.93;;;3.22;;
22026;SDS011;11177;50.966;10.070;2023-02-05T02:39:44;4.50;;;3.13;;
22026;SDS011;11177;50.966;10.070;2023-02-05T02:42:23;3.73;;;3.00;;
22026;SDS011;11177;50.966;10.070;2023-02-05T02:45:15;4.78;;;2.90;;
22026;SDS011;11177;50.966;10.070;2023-02-05T02:47:47;5.30;;;3.25;;
22026;SDS011;11177;50.966;10.070;2023-02-05T02:50:18;5.37;;;3.27;;
22026;SDS011;11177;50.966;10.070;2023-02-05T02:52:48;7.65;;;3.28;;
22026;SDS011;11177;50.966;10.070;2023-02-05T02:55:16;4.82;;;3.45;;
22026;SDS011;11177;50.966;10.070;2023-02-05T02:57:45;6.00;;;3.53;;
22026;SDS011;11177;50.966;10.070;2023-02-05T03:00:17;7.57;;;3.80;;
22026;SDS011;11177;50.966;10.070;2023-02-05T03:02:46;5.60;;;3.70;;
22026;SDS011;11177;50.966;10.070;2023-02-05T03:05:15;5.65;;;3.72;;
22026;SDS011;11177;50.966;10.070;2023-02-05T03:07:45;6.30;;;4.05;;
22026;SDS011;11177;50.966;10.070;2023-02-05T03:10:24;6.85;;;4.22;;
22026;SDS011;11177;50.966;10.070;2023-02-05T03:12:56;5.70;;;4.07;;
22026;SDS011;11177;50.966;10.070;2023-02-05T03:15:23;7.90;;;4.40;;
22026;SDS011;11177;50.966;10.070;2023-02-05T03:17:50;5.78;;;3.70;;
22026;SDS011;11177;50.966;10.070;2023-02-05T03:20:20;7.00;;;4.10;;
22026;SDS011;11177;50.966;10.070;2023-02-05T03:22:49;6.38;;;4.00;;
22026;SDS011;11177;50.966;10.070;2023-02-05T03:25:18;6.00;;;4.35;;
22026;SDS011;11177;50.966;10.070;2023-02-05T03:27:46;4.85;;;3.53;;
22026;SDS011;11177;50.966;10.070;2023-02-05T03:30:13;5.88;;;3.70;;
22026;SDS011;11177;50.966;10.070;2023-02-05T03:35:45;6.20;;;3.80;;
22026;SDS011;11177;50.966;10.070;2023-02-05T03:38:35;5.60;;;3.80;;
22026;SDS011;11177;50.966;10.070;2023-02-05T03:41:16;6.75;;;4.20;;
22026;SDS011;11177;50.966;10.070;2023-02-05T03:44:12;6.15;;;4.10;;
22026;SDS011;11177;50.966;10.070;2023-02-05T03:46:58;7.63;;;4.43;;
22026;SDS011;11177;50.966;10.070;2023-02-05T03:49:31;7.88;;;4.70;;
22026;SDS011;11177;50.966;10.070;2023-02-05T03:52:07;8.25;;;4.40;;
22026;SDS011;11177;50.966;10.070;2023-02-05T03:57:48;9.27;;;4.55;;
22026;SDS011;11177;50.966;10.070;2023-02-05T04:00:18;5.63;;;4.03;;
22026;SDS011;11177;50.966;10.070;2023-02-05T04:02:45;7.35;;;4.40;;
22026;SDS011;11177;50.966;10.070;2023-02-05T04:05:11;7.70;;;4.22;;
22026;SDS011;11177;50.966;10.070;2023-02-05T04:07:38;7.90;;;4.32;;
22026;SDS011;11177;50.966;10.070;2023-02-05T04:10:05;6.53;;;4.38;;
22026;SDS011;11177;50.966;10.070;2023-02-05T04:12:32;8.23;;;4.90;;
22026;SDS011;11177;50.966;10.070;2023-02-05T04:14:59;7.32;;;4.68;;
22026;SDS011;11177;50.966;10.070;2023-02-05T04:17:25;7.78;;;4.93;;
22026;SDS011;11177;50.966;10.070;2023-02-05T04:19:52;7.85;;;4.38;;
22026;SDS011;11177;50.966;10.070;2023-02-05T04:22:19;8.82;;;4.97;;
22026;SDS011;11177;50.966;10.070;2023-02-05T04:24:46;6.85;;;4.07;;
22026;SDS011;11177;50.966;10.070;2023-02-05T04:27:12;7.45;;;4.50;;
22026;SDS011;11177;50.966;10.070;2023-02-05T04:29:39;8.07;;;4.68;;
22026;SDS011;11177;50.966;10.070;2023-02-05T04:32:05;7.78;;;5.10;;
22026;SDS011;11177;50.966;10.070;2023-02-05T04:34:32;10.73;;;5.82;;
22026;SDS011;11177;50.966;10.070;2023-02-05T04:36:59;7.85;;;5.07;;
22026;SDS011;11177;50.966;10.070;2023-02-05T04:39:26;8.95;;;4.47;;
22026;SDS011;11177;50.966;10.070;2023-02-05T04:41:52;7.82;;;4.90;;
22026;SDS011;11177;50.966;10.070;2023-02-05T04:44:19;7.75;;;4.85;;
22026;SDS011;11177;50.966;10.070;2023-02-05T04:46:46;8.60;;;4.95;;
22026;SDS011;11177;50.966;10.070;2023-02-05T04:49:12;7.93;;;5.28;;
22026;SDS011;11177;50.966;10.070;2023-02-05T04:51:39;7.38;;;5.22;;
22026;SDS011;11177;50.966;10.070;2023-02-05T04:54:06;9.25;;;5.65;;
22026;SDS011;11177;50.966;10.070;2023-02-05T04:56:33;7.40;;;5.25;;
22026;SDS011;11177;50.966;10.070;2023-02-05T04:58:59;9.10;;;5.53;;
22026;SDS011;11177;50.966;10.070;2023-02-05T05:01:26;9.27;;;5.70;;
22026;SDS011;11177;50.966;10.070;2023-02-05T05:03:53;9.63;;;5.90;;
22026;SDS011;11177;50.966;10.070;2023-02-05T05:06:19;9.38;;;5.10;;
22026;SDS011;11177;50.966;10.070;2023-02-05T05:08:46;10.60;;;5.40;;
22026;SDS011;11177;50.966;10.070;2023-02-05T05:11:14;9.63;;;5.75;;
22026;SDS011;11177;50.966;10.070;2023-02-05T05:13:42;8.77;;;5.45;;
22026;SDS011;11177;50.966;10.070;2023-02-05T05:16:09;7.70;;;5.00;;
22026;SDS011;11177;50.966;10.070;2023-02-05T05:18:37;8.63;;;4.95;;
22026;SDS011;11177;50.966;10.070;2023-02-05T05:21:04;7.15;;;4.72;;
22026;SDS011;11177;50.966;10.070;2023-02-05T05:23:32;6.93;;;4.82;;
22026;SDS011;11177;50.966;10.070;2023-02-05T05:26:01;6.90;;;4.50;;
22026;SDS011;11177;50.966;10.070;2023-02-05T05:28:33;7.50;;;4.80;;
22026;SDS011;11177;50.966;10.070;2023-02-05T05:31:07;7.47;;;4.82;;
22026;SDS011;11177;50.966;10.070;2023-02-05T05:33:35;10.38;;;4.93;;
22026;SDS011;11177;50.966;10.070;2023-02-05T05:36:02;7.97;;;5.03;;
22026;SDS011;11177;50.966;10.070;2023-02-05T05:38:29;7.68;;;4.95;;
22026;SDS011;11177;50.966;10.070;2023-02-05T05:40:56;8.45;;;5.65;;
22026;SDS011;11177;50.966;10.070;2023-02-05T05:43:42;9.90;;;5.65;;
22026;SDS011;11177;50.966;10.070;2023-02-05T05:46:15;7.93;;;5.20;;
22026;SDS011;11177;50.966;10.070;2023-02-05T05:48:54;9.27;;;6.07;;
22026;SDS011;11177;50.966;10.070;2023-02-05T05:51:23;11.02;;;6.30;;
22026;SDS011;11177;50.966;10.070;2023-02-05T05:53:50;11.38;;;6.05;;
22026;SDS011;11177;50.966;10.070;2023-02-05T05:56:17;9.52;;;6.00;;
22026;SDS011;11177;50.966;10.070;2023-02-05T05:58:44;9.20;;;6.30;;
22026;SDS011;11177;50.966;10.070;2023-02-05T06:01:12;10.35;;;6.60;;
22026;SDS011;11177;50.966;10.070;2023-02-05T06:03:40;10.07;;;6.10;;
22026;SDS011;11177;50.966;10.070;2023-02-05T06:06:07;11.55;;;6.65;;
22026;SDS011;11177;50.966;10.070;2023-02-05T06:08:35;11.18;;;6.28;;
22026;SDS011;11177;50.966;10.070;2023-02-05T06:11:01;11.65;;;6.35;;
22026;SDS011;11177;50.966;10.070;2023-02-05T06:13:28;9.77;;;6.47;;
22026;SDS011;11177;50.966;10.070;2023-02-05T06:15:55;12.20;;;6.65;;
22026;SDS011;11177;50.966;10.070;2023-02-05T06:18:22;10.30;;;6.63;;
22026;SDS011;11177;50.966;10.070;2023-02-05T06:20:49;10.80;;;6.65;;
22026;SDS011;11177;50.966;10.070;2023-02-05T06:23:16;9.55;;;6.10;;
22026;SDS011;11177;50.966;10.070;2023-02-05T06:25:43;9.32;;;5.97;;
22026;SDS011;11177;50.966;10.070;2023-02-05T06:28:09;11.63;;;7.00;;
22026;SDS011;11177;50.966;10.070;2023-02-05T06:30:36;11.43;;;6.78;;
22026;SDS011;11177;50.966;10.070;2023-02-05T06:33:03;12.10;;;7.05;;
22026;SDS011;11177;50.966;10.070;2023-02-05T06:35:30;13.90;;;6.95;;
22026;SDS011;11177;50.966;10.070;2023-02-05T06:37:57;11.15;;;6.60;;
22026;SDS011;11177;50.966;10.070;2023-02-05T06:40:24;11.73;;;6.93;;
22026;SDS011;11177;50.966;10.070;2023-02-05T06:42:53;10.32;;;6.13;;
22026;SDS011;11177;50.966;10.070;2023-02-05T06:45:20;9.48;;;6.40;;
22026;SDS011;11177;50.966;10.070;2023-02-05T06:47:47;10.15;;;6.15;;
22026;SDS011;11177;50.966;10.070;2023-02-05T06:50:14;11.32;;;6.43;;
22026;SDS011;11177;50.966;10.070;2023-02-05T06:52:41;9.85;;;6.13;;
22026;SDS011;11177;50.966;10.070;2023-02-05T06:55:08;9.30;;;6.07;;
22026;SDS011;11177;50.966;10.070;2023-02-05T06:57:34;10.52;;;6.15;;
22026;SDS011;11177;50.966;10.070;2023-02-05T07:00:01;8.50;;;5.65;;
22026;SDS011;11177;50.966;10.070;2023-02-05T07:02:30;9.55;;;6.20;;
22026;SDS011;11177;50.966;10.070;2023-02-05T07:04:57;10.48;;;6.78;;
22026;SDS011;11177;50.966;10.070;2023-02-05T07:07:23;9.48;;;6.35;;
22026;SDS011;11177;50.966;10.070;2023-02-05T07:09:50;11.52;;;6.03;;
22026;SDS011;11177;50.966;10.070;2023-02-05T07:12:17;9.57;;;6.30;;
22026;SDS011;11177;50.966;10.070;2023-02-05T07:14:43;13.13;;;6.30;;
22026;SDS011;11177;50.966;10.070;2023-02-05T07:17:10;10.70;;;6.68;;
22026;SDS011;11177;50.966;10.070;2023-02-05T07:19:37;8.90;;;6.05;;
22026;SDS011;11177;50.966;10.070;2023-02-05T07:22:04;10.50;;;6.75;;
22026;SDS011;11177;50.966;10.070;2023-02-05T07:24:31;9.90;;;6.45;;
22026;SDS011;11177;50.966;10.070;2023-02-05T07:26:57;11.32;;;7.05;;
22026;SDS011;11177;50.966;10.070;2023-02-05T07:29:24;12.55;;;7.95;;
22026;SDS011;11177;50.966;10.070;2023-02-05T07:31:52;12.07;;;7.38;;
22026;SDS011;11177;50.966;10.070;2023-02-05T07:34:19;13.50;;;7.57;;
22026;SDS011;11177;50.966;10.070;2023-02-05T07:36:48;11.40;;;7.20;;
22026;SDS011;11177;50.966;10.070;2023-02-05T07:39:16;11.00;;;6.97;;
22026;SDS011;11177;50.966;10.070;2023-02-05T07:41:43;11.43;;;7.38;;
22026;SDS011;11177;50.966;10.070;2023-02-05T07:44:10;11.27;;;6.75;;
22026;SDS011;11177;50.966;10.070;2023-02-05T07:46:37;10.35;;;7.50;;
22026;SDS011;11177;50.966;10.070;2023-02-05T07:49:03;11.38;;;8.23;;
22026;SDS011;11177;50.966;10.070;2023-02-05T07:51:30;13.85;;;8.23;;
22026;SDS011;11177;50.966;10.070;2023-02-05T07:53:58;13.45;;;9.18;;
22026;SDS011;11177;50.966;10.070;2023-02-05T07:56:24;13.02;;;8.68;;
22026;SDS011;11177;50.966;10.070;2023-02-05T07:58:51;17.13;;;10.68;;
22026;SDS011;11177;50.966;10.070;2023-02-05T08:01:18;17.27;;;11.27;;
22026;SDS011;11177;50.966;10.070;2023-02-05T08:03:45;15.15;;;10.80;;
22026;SDS011;11177;50.966;10.070;2023-02-05T08:06:12;20.50;;;11.10;;
22026;SDS011;11177;50.966;10.070;2023-02-05T08:08:40;17.75;;;10.75;;
22026;SDS011;11177;50.966;10.070;2023-02-05T08:11:09;21.60;;;12.80;;
22026;SDS011;11177;50.966;10.070;2023-02-05T08:13:39;22.50;;;13.63;;
22026;SDS011;11177;50.966;10.070;2023-02-05T08:16:06;25.08;;;14.85;;
22026;SDS011;11177;50.966;10.070;2023-02-05T08:18:33;22.08;;;13.93;;
22026;SDS011;11177;50.966;10.070;2023-02-05T08:21:00;17.88;;;10.98;;
22026;SDS011;11177;50.966;10.070;2023-02-05T08:23:26;15.70;;;10.15;;
22026;SDS011;11177;50.966;10.070;2023-02-05T08:25:53;15.52;;;10.25;;
22026;SDS011;11177;50.966;10.070;2023-02-05T08:28:21;18.23;;;9.35;;
22026;SDS011;11177;50.966;10.070;2023-02-05T08:30:48;13.50;;;8.57;;
22026;SDS011;11177;50.966;10.070;2023-02-05T08:33:16;13.43;;;8.90;;
22026;SDS011;11177;50.966;10.070;2023-02-05T08:35:42;14.18;;;9.50;;
22026;SDS011;11177;50.966;10.070;2023-02-05T08:38:09;16.10;;;9.68;;
22026;SDS011;11177;50.966;10.070;2023-02-05T08:40:36;14.43;;;9.50;;
22026;SDS011;11177;50.966;10.070;2023-02-05T08:43:03;17.33;;;10.85;;
22026;SDS011;11177;50.966;10.070;2023-02-05T08:45:29;15.20;;;10.23;;
22026;SDS011;11177;50.966;10.070;2023-02-05T08:47:56;19.15;;;12.23;;
22026;SDS011;11177;50.966;10.070;2023-02-05T08:50:23;19.15;;;12.45;;
22026;SDS011;11177;50.966;10.070;2023-02-05T08:52:50;18.17;;;10.55;;
22026;SDS011;11177;50.966;10.070;2023-02-05T08:55:17;13.20;;;9.05;;
22026;SDS011;11177;50.966;10.070;2023-02-05T08:57:43;13.45;;;8.85;;
22026;SDS011;11177;50.966;10.070;2023-02-05T09:00:11;12.43;;;8.43;;
22026;SDS011;11177;50.966;10.070;2023-02-05T09:02:39;13.00;;;8.15;;
22026;SDS011;11177;50.966;10.070;2023-02-05T09:05:08;12.48;;;8.30;;
22026;SDS011;11177;50.966;10.070;2023-02-05T09:07:36;12.63;;;8.05;;
22026;SDS011;11177;50.966;10.070;2023-02-05T09:10:05;13.55;;;8.88;;
22026;SDS011;11177;50.966;10.070;2023-02-05T09:12:33;11.95;;;7.97;;
22026;SDS011;11177;50.966;10.070;2023-02-05T09:15:00;16.55;;;9.82;;
22026;SDS011;11177;50.966;10.070;2023-02-05T09:17:27;17.70;;;9.85;;
22026;SDS011;11177;50.966;10.070;2023-02-05T09:19:53;18.48;;;10.23;;
22026;SDS011;11177;50.966;10.070;2023-02-05T09:22:20;20.98;;;10.48;;
22026;SDS011;11177;50.966;10.070;2023-02-05T09:24:47;24.02;;;12.30;;
22026;SDS011;11177;50.966;10.070;2023-02-05T09:27:14;23.38;;;12.05;;
22026;SDS011;11177;50.966;10.070;2023-02-05T09:29:40;22.08;;;12.02;;
22026;SDS011;11177;50.966;10.070;2023-02-05T09:32:07;19.65;;;11.43;;
22026;SDS011;11177;50.966;10.070;2023-02-05T09:34:34;18.00;;;10.82;;
22026;SDS011;11177;50.966;10.070;2023-02-05T09:37:00;15.77;;;10.00;;
22026;SDS011;11177;50.966;10.070;2023-02-05T09:39:29;17.40;;;10.52;;
22026;SDS011;11177;50.966;10.070;2023-02-05T09:42:26;17.73;;;10.50;;
22026;SDS011;11177;50.966;10.070;2023-02-05T09:45:45;16.42;;;11.23;;
22026;SDS011;11177;50.966;10.070;2023-02-05T09:51:15;16.65;;;10.35;;
22026;SDS011;11177;50.966;10.070;2023-02-05T09:53:53;15.35;;;10.63;;
22026;SDS011;11177;50.966;10.070;2023-02-05T09:56:22;18.95;;;11.57;;
22026;SDS011;11177;50.966;10.070;2023-02-05T09:58:50;17.90;;;11.50;;
22026;SDS011;11177;50.966;10.070;2023-02-05T10:03:50;18.67;;;12.05;;
22026;SDS011;11177;50.966;10.070;2023-02-05T10:07:10;17.80;;;11.68;;
22026;SDS011;11177;50.966;10.070;2023-02-05T10:09:20;16.27;;;10.45;;
22026;SDS011;11177;50.966;10.070;2023-02-05T10:15:13;16.67;;;10.88;;
22026;SDS011;11177;50.966;10.070;2023-02-05T10:17:54;18.35;;;11.63;;
22026;SDS011;11177;50.966;10.070;2023-02-05T10:20:38;18.38;;;11.88;;
22026;SDS011;11177;50.966;10.070;2023-02-05T10:26:52;19.05;;;10.57;;
22026;SDS011;11177;50.966;10.070;2023-02-05T10:32:35;17.20;;;10.05;;
22026;SDS011;11177;50.966;10.070;2023-02-05T10:35:22;14.07;;;8.30;;
22026;SDS011;11177;50.966;10.070;2023-02-05T10:37:53;10.85;;;7.45;;
22026;SDS011;11177;50.966;10.070;2023-02-05T10:40:36;15.20;;;9.15;;
